Time;durP1;ratioP1;P1;durP2;ratioP2;P2;SDS_P1;SDS_P2;PMS_P1;PMS_P2;Temp;Humidity;BMP_temperature;BMP_pressure;BME280_temperature;BME280_humidity;BME280_pressure;Samples;Min_cycle;Max_cycle;Signal;HPM_P1;HPM_P2
2022/07/10 00:01:26;;;;;;;2.15;1.30;;;19.30;87.10;;;;;;6273645;22;20075;-75
2022/07/10 00:03:54;;;;;;;1.98;1.30;;;19.30;87.30;;;;;;6271723;22;20318;-75
2022/07/10 00:06:19;;;;;;;1.73;1.05;;;19.30;87.30;;;;;;6272348;22;20008;-74
2022/07/10 00:08:45;;;;;;;2.78;1.20;;;19.30;87.40;;;;;;6274075;22;20115;-74
2022/07/10 00:11:11;;;;;;;2.47;1.17;;;19.30;87.40;;;;;;6273932;22;19999;-75
2022/07/10 00:13:37;;;;;;;1.92;1.10;;;19.30;87.50;;;;;;6273915;22;19999;-75
2022/07/10 00:16:02;;;;;;;1.92;1.20;;;19.30;87.50;;;;;;6271449;22;20010;-75
2022/07/10 00:18:28;;;;;;;1.92;1.13;;;19.30;87.50;;;;;;6274326;22;20045;-75
2022/07/10 00:20:54;;;;;;;2.60;1.20;;;19.30;87.50;;;;;;6273453;22;20118;-75
2022/07/10 00:23:20;;;;;;;2.05;1.17;;;19.20;87.50;;;;;;6274495;22;20035;-74
2022/07/10 00:25:45;;;;;;;2.55;1.20;;;19.30;87.60;;;;;;6273058;22;20061;-75
2022/07/10 00:28:11;;;;;;;2.05;1.10;;;19.30;87.60;;;;;;6272259;22;20509;-75
2022/07/10 00:30:37;;;;;;;2.60;1.13;;;19.30;87.60;;;;;;6272207;22;20348;-75
2022/07/10 00:33:03;;;;;;;1.83;0.90;;;19.30;87.50;;;;;;6274184;22;20451;-75
2022/07/10 00:35:28;;;;;;;2.67;1.10;;;19.30;87.40;;;;;;6271020;22;20333;-74
2022/07/10 00:37:54;;;;;;;1.83;1.00;;;19.30;87.30;;;;;;6271883;22;20031;-75
2022/07/10 00:40:20;;;;;;;2.17;1.00;;;19.30;87.30;;;;;;6274095;22;20432;-74
2022/07/10 00:42:46;;;;;;;1.67;1.00;;;19.30;87.20;;;;;;6271972;22;20007;-74
2022/07/10 00:45:11;;;;;;;2.00;1.00;;;19.40;87.20;;;;;;6273581;22;20043;-75
2022/07/10 00:47:37;;;;;;;3.47;1.33;;;19.40;87.10;;;;;;6273728;22;20433;-75
2022/07/10 00:50:04;;;;;;;3.50;1.30;;;19.30;87.10;;;;;;6273851;22;20000;-74
2022/07/10 00:52:30;;;;;;;1.95;1.08;;;19.30;87.20;;;;;;6273807;22;20000;-75
2022/07/10 00:54:56;;;;;;;2.72;1.05;;;19.30;87.30;;;;;;6271856;22;20383;-75
2022/07/10 00:57:22;;;;;;;1.75;0.90;;;19.30;87.40;;;;;;6273735;22;19996;-74
2022/07/10 00:59:48;;;;;;;3.33;1.20;;;19.30;87.40;;;;;;6273971;22;20000;-74
2022/07/10 01:02:15;;;;;;;2.20;1.20;;;19.30;87.50;;;;;;6272368;22;20498;-74
2022/07/10 01:04:41;;;;;;;2.65;1.20;;;19.30;87.60;;;;;;6273474;22;20000;-75
2022/07/10 01:07:07;;;;;;;1.95;1.02;;;19.30;87.60;;;;;;6272169;22;20027;-75
2022/07/10 01:09:33;;;;;;;2.42;1.05;;;19.30;87.70;;;;;;6273471;22;20011;-74
2022/07/10 01:12:01;;;;;;;2.70;1.20;;;19.30;87.60;;;;;;6272448;22;20047;-75
2022/07/10 01:14:29;;;;;;;1.50;1.00;;;19.30;87.60;;;;;;6271885;22;20038;-75
2022/07/10 01:16:56;;;;;;;2.58;1.10;;;19.30;87.70;;;;;;6272290;22;20098;-74
2022/07/10 01:19:21;;;;;;;2.50;1.38;;;19.30;87.70;;;;;;6272384;22;20449;-75
2022/07/10 01:21:47;;;;;;;2.17;1.13;;;19.30;87.70;;;;;;6272131;22;19995;-75
2022/07/10 01:24:12;;;;;;;3.40;1.10;;;19.20;87.70;;;;;;6273243;22;20083;-75
2022/07/10 01:26:42;;;;;;;2.00;1.00;;;19.30;87.70;;;;;;6272196;22;20107;-75
2022/07/10 01:29:09;;;;;;;1.55;1.00;;;19.30;87.60;;;;;;6272396;22;20083;-75
2022/07/10 01:31:34;;;;;;;1.77;0.90;;;19.30;87.50;;;;;;6273761;22;20015;-75
2022/07/10 01:34:02;;;;;;;1.58;0.95;;;19.30;87.40;;;;;;6271882;22;20014;-75
2022/07/10 01:36:30;;;;;;;2.08;0.90;;;19.30;87.30;;;;;;6273847;22;20050;-75
2022/07/10 01:38:57;;;;;;;1.60;1.08;;;19.30;87.20;;;;;;6274134;22;20039;-75
2022/07/10 01:41:24;;;;;;;2.38;0.90;;;19.30;87.20;;;;;;6275677;22;20007;-75
2022/07/10 01:43:50;;;;;;;1.27;0.90;;;19.30;87.20;;;;;;6273635;22;20008;-75
2022/07/10 01:46:16;;;;;;;1.75;0.80;;;19.30;87.30;;;;;;6275798;22;20322;-75
2022/07/10 01:48:42;;;;;;;2.30;0.90;;;19.30;87.40;;;;;;6274193;22;20082;-74
2022/07/10 01:51:09;;;;;;;2.35;1.00;;;19.30;87.50;;;;;;6273967;22;20007;-74
2022/07/10 01:53:35;;;;;;;1.85;0.85;;;19.30;87.60;;;;;;6275650;22;20087;-75
2022/07/10 01:56:03;;;;;;;3.25;0.98;;;19.30;87.60;;;;;;6275300;22;20035;-75
2022/07/10 01:58:29;;;;;;;1.98;1.05;;;19.30;87.70;;;;;;6274983;22;20065;-75
2022/07/10 02:00:54;;;;;;;2.45;1.02;;;19.30;87.70;;;;;;6273933;22;20004;-75
2022/07/10 02:06:04;;;;;;;1.85;1.00;;;19.20;87.70;;;;;;6275263;22;20095;-75
2022/07/10 02:08:30;;;;;;;1.65;0.93;;;19.20;87.70;;;;;;6273921;22;20039;-75
2022/07/10 02:10:55;;;;;;;2.13;1.00;;;19.20;87.70;;;;;;6273323;22;20393;-75
2022/07/10 02:13:21;;;;;;;2.00;1.10;;;19.20;87.80;;;;;;6273631;22;20054;-74
2022/07/10 02:15:47;;;;;;;2.15;1.13;;;19.20;87.70;;;;;;6273176;22;20500;-75
2022/07/10 02:18:13;;;;;;;3.20;1.00;;;19.20;87.80;;;;;;6273719;22;20000;-75
2022/07/10 02:20:39;;;;;;;1.23;0.90;;;19.20;87.60;;;;;;6274873;22;20008;-74
2022/07/10 02:23:06;;;;;;;1.92;1.02;;;19.30;87.60;;;;;;6275318;22;20027;-75
2022/07/10 02:25:31;;;;;;;1.70;0.93;;;19.30;88.00;;;;;;6275012;22;20449;-74
2022/07/10 02:27:57;;;;;;;1.42;0.90;;;19.30;87.50;;;;;;6273089;22;20046;-75
2022/07/10 02:30:22;;;;;;;1.60;0.90;;;19.30;87.40;;;;;;6273492;22;20004;-74
2022/07/10 02:32:48;;;;;;;1.48;1.00;;;19.30;87.30;;;;;;6275089;22;20015;-75
2022/07/10 02:35:13;;;;;;;1.40;0.80;;;19.30;87.30;;;;;;6274486;22;20046;-74
2022/07/10 02:37:39;;;;;;;1.75;0.90;;;19.30;87.40;;;;;;6273096;22;20000;-75
2022/07/10 02:40:05;;;;;;;2.15;0.90;;;19.30;87.40;;;;;;6273459;22;20007;-74
2022/07/10 02:42:30;;;;;;;2.50;1.10;;;19.30;87.50;;;;;;6275167;22;20063;-75
2022/07/10 02:44:55;;;;;;;1.42;0.80;;;19.30;87.60;;;;;;6274841;22;20514;-75
2022/07/10 02:47:21;;;;;;;2.08;0.98;;;19.30;87.70;;;;;;6274985;22;19998;-76
2022/07/10 02:49:46;;;;;;;2.95;1.10;;;19.20;87.70;;;;;;6271466;22;20035;-75
2022/07/10 02:52:12;;;;;;;1.83;0.90;;;19.20;87.70;;;;;;6272772;22;20432;-75
2022/07/10 02:54:38;;;;;;;1.95;1.00;;;19.20;87.80;;;;;;6272937;22;20454;-75
2022/07/10 02:57:04;;;;;;;1.48;0.95;;;19.20;87.80;;;;;;6275008;22;20043;-75
2022/07/10 02:59:29;;;;;;;1.80;0.90;;;19.20;87.80;;;;;;6273343;22;20376;-74
2022/07/10 03:01:55;;;;;;;1.67;0.90;;;19.20;87.70;;;;;;6274886;22;20002;-74
2022/07/10 03:04:20;;;;;;;2.22;1.00;;;19.20;87.80;;;;;;6274326;22;20007;-75
2022/07/10 03:06:46;;;;;;;2.67;1.10;;;19.20;87.90;;;;;;6273431;22;19999;-75
2022/07/10 03:09:11;;;;;;;1.85;0.93;;;19.20;87.90;;;;;;6274787;22;20049;-74
2022/07/10 03:11:37;;;;;;;1.73;0.88;;;19.20;87.90;;;;;;6273407;22;20010;-75
2022/07/10 03:14:02;;;;;;;2.33;1.00;;;19.20;87.70;;;;;;6272237;22;20027;-74
2022/07/10 03:16:28;;;;;;;2.03;0.90;;;19.20;87.70;;;;;;6274636;22;20000;-75
2022/07/10 03:18:53;;;;;;;1.92;0.82;;;19.20;87.60;;;;;;6274824;22;20420;-74
2022/07/10 03:21:19;;;;;;;2.33;1.02;;;19.30;87.60;;;;;;6272969;22;20336;-75
2022/07/10 03:23:44;;;;;;;1.40;0.80;;;19.30;87.50;;;;;;6272453;22;20011;-75
2022/07/10 03:26:10;;;;;;;2.17;0.90;;;19.30;87.40;;;;;;6274649;22;20432;-75
2022/07/10 03:28:35;;;;;;;2.95;1.00;;;19.30;87.30;;;;;;6273376;22;20086;-74
2022/07/10 03:31:02;;;;;;;1.73;0.82;;;19.30;87.40;;;;;;6274122;22;20011;-74
2022/07/10 03:33:28;;;;;;;2.30;0.98;;;19.30;87.60;;;;;;6273099;22;20012;-75
2022/07/10 03:35:53;;;;;;;2.33;1.10;;;19.30;87.60;;;;;;6272699;22;20433;-74
2022/07/10 03:38:19;;;;;;;1.75;0.90;;;19.30;87.70;;;;;;6273183;22;20086;-75
2022/07/10 03:40:47;;;;;;;1.38;0.93;;;19.20;87.70;;;;;;6273895;22;20003;-75
2022/07/10 03:43:13;;;;;;;2.08;1.00;;;19.20;87.80;;;;;;6272845;22;20079;-74
2022/07/10 03:45:38;;;;;;;1.50;0.85;;;19.20;87.80;;;;;;6274244;22;20039;-75
2022/07/10 03:48:04;;;;;;;2.72;0.90;;;19.20;87.90;;;;;;6272792;22;20087;-74
2022/07/10 03:50:29;;;;;;;1.45;0.90;;;19.20;87.90;;;;;;6274048;22;20000;-74
2022/07/10 03:52:55;;;;;;;1.88;1.00;;;19.20;87.90;;;;;;6272712;22;20007;-75
2022/07/10 03:55:20;;;;;;;2.20;0.80;;;19.20;87.90;;;;;;6273990;22;20004;-75
2022/07/10 03:57:56;;;;;;;3.00;1.08;;;19.20;87.90;;;;;;6272883;22;20000;-75
2022/07/10 04:00:24;;;;;;;1.70;0.90;;;19.20;87.90;;;;;;6273061;22;20007;-74
2022/07/10 04:03:00;;;;;;;1.17;0.80;;;19.20;87.90;;;;;;6272548;22;20053;-76
2022/07/10 04:05:27;;;;;;;3.08;0.90;;;19.20;87.90;;;;;;6273829;22;20003;-75
2022/07/10 04:07:53;;;;;;;1.10;0.80;;;19.20;87.80;;;;;;6273001;22;20012;-74
2022/07/10 04:10:20;;;;;;;1.70;0.95;;;19.20;87.70;;;;;;6272207;22;20000;-74
2022/07/10 04:12:46;;;;;;;1.38;0.70;;;19.20;87.60;;;;;;6273926;22;20000;-75
2022/07/10 04:15:12;;;;;;;1.48;0.80;;;19.20;87.50;;;;;;6273698;22;20622;-76
2022/07/10 04:17:37;;;;;;;2.30;0.95;;;19.30;87.50;;;;;;6272786;22;20000;-75
2022/07/10 04:20:03;;;;;;;1.65;0.70;;;19.30;87.40;;;;;;6274146;22;19996;-75
2022/07/10 04:22:29;;;;;;;1.92;0.85;;;19.30;87.40;;;;;;6274280;22;20031;-75
2022/07/10 04:24:55;;;;;;;1.83;0.88;;;19.30;87.50;;;;;;6273565;22;20000;-74
2022/07/10 04:27:20;;;;;;;1.92;0.88;;;19.30;87.60;;;;;;6274126;22;20007;-75
2022/07/10 04:29:46;;;;;;;1.70;1.00;;;19.30;87.70;;;;;;6274043;22;20074;-74
2022/07/10 04:32:12;;;;;;;1.77;0.75;;;19.30;87.70;;;;;;6272516;22;20004;-74
2022/07/10 04:34:37;;;;;;;2.15;0.88;;;19.20;87.80;;;;;;6272016;22;20462;-76
2022/07/10 04:37:03;;;;;;;1.90;1.00;;;19.20;87.80;;;;;;6274163;22;20074;-75
2022/07/10 04:39:29;;;;;;;1.92;1.00;;;19.20;87.90;;;;;;6272146;22;20432;-74
2022/07/10 04:41:54;;;;;;;1.48;0.90;;;19.20;88.00;;;;;;6272736;22;19999;-75
2022/07/10 04:44:20;;;;;;;2.92;1.10;;;19.20;87.90;;;;;;6272155;22;20452;-74
2022/07/10 04:46:46;;;;;;;1.58;0.90;;;19.20;88.00;;;;;;6274304;22;20020;-74
2022/07/10 10:15:30;;;;;;;7.82;1.25;;;19.00;75.30;;;;;;6250184;22;20027;-75
2022/07/10 10:17:58;;;;;;;4.47;1.20;;;19.00;75.30;;;;;;6240972;22;20077;-75
2022/07/10 10:20:38;;;;;;;6.85;1.38;;;20.20;76.20;;;;;;6275813;22;20003;-74
2022/07/10 10:23:14;;;;;;;4.70;1.10;;;19.30;75.90;;;;;;6248014;22;20000;-74
2022/07/10 10:25:40;;;;;;;4.38;1.10;;;19.10;76.10;;;;;;6243659;23;19996;-75
2022/07/10 10:28:11;;;;;;;4.43;1.10;;;19.00;75.70;;;;;;6241247;23;20417;-75
2022/07/10 10:30:39;;;;;;;;;;;19.30;76.00;;;;;;6218583;23;20447;-75
2022/07/10 10:33:23;;;;;;;5.93;1.20;;;20.80;77.00;;;;;;6246127;23;19910;-75
2022/07/10 10:35:49;;;;;;;7.18;1.55;;;18.80;76.00;;;;;;6216910;23;20000;-76
2022/07/10 10:38:15;;;;;;;5.20;1.20;;;19.10;76.90;;;;;;6219224;23;20053;-75
2022/07/10 10:40:42;;;;;;;7.05;1.33;;;19.00;76.50;;;;;;6244704;23;20011;-74
2022/07/10 10:43:21;;;;;;;8.57;1.30;;;19.10;76.60;;;;;;6244811;23;20054;-75
2022/07/10 10:45:47;;;;;;;8.68;1.30;;;19.10;77.10;;;;;;6217236;23;20016;-75
2022/07/10 10:48:15;;;;;;;9.63;1.75;;;19.10;76.50;;;;;;6244668;23;20000;-75
2022/07/10 10:50:50;;;;;;;6.07;1.42;;;19.20;76.70;;;;;;6217851;23;20018;-75
2022/07/10 10:53:22;;;;;;;5.30;1.35;;;19.20;76.70;;;;;;6244618;23;20007;-75
2022/07/10 10:56:00;;;;;;;7.22;1.35;;;19.20;76.80;;;;;;6244281;23;20038;-75
2022/07/10 10:58:27;;;;;;;7.13;1.67;;;19.20;76.80;;;;;;6217886;23;20000;-75
2022/07/10 11:01:02;;;;;;;6.35;1.63;;;19.20;77.00;;;;;;6217926;23;20008;-75
2022/07/10 11:03:28;;;;;;;6.93;1.48;;;19.20;77.00;;;;;;6217725;23;20015;-75
2022/07/10 11:05:54;;;;;;;6.68;1.30;;;19.10;77.00;;;;;;6242875;23;20046;-75
2022/07/10 11:08:37;;;;;;;6.90;1.30;;;19.20;77.30;;;;;;6244594;23;20004;-75
2022/07/10 11:11:31;;;;;;;6.32;1.23;;;19.20;77.40;;;;;;6244711;23;20015;-75
2022/07/10 11:13:58;;;;;;;6.72;1.50;;;19.20;77.60;;;;;;6216636;23;20008;-74
2022/07/10 11:16:24;;;;;;;7.40;1.50;;;19.20;77.70;;;;;;6217436;23;20087;-75
2022/07/10 11:18:53;;;;;;;6.47;1.20;;;19.20;77.80;;;;;;6242740;23;20058;-75
2022/07/10 11:21:23;;;;;;;6.35;1.20;;;19.20;77.90;;;;;;6244431;23;20023;-75
2022/07/10 11:24:20;;;;;;;3.13;1.10;;;19.30;78.00;;;;;;6243539;23;20467;-74
2022/07/10 11:26:54;;;;;;;5.53;1.38;;;19.30;78.00;;;;;;6244429;23;20004;-75
2022/07/10 11:29:19;;;;;;;5.70;1.27;;;19.30;78.00;;;;;;6244330;23;20083;-75
2022/07/10 11:31:52;;;;;;;6.22;1.20;;;19.30;78.00;;;;;;6217503;23;20035;-75
2022/07/10 11:34:18;;;;;;;8.52;1.35;;;19.40;78.10;;;;;;6243703;23;20007;-75
2022/07/10 11:36:44;;;;;;;3.33;1.17;;;19.40;78.00;;;;;;6242587;23;19996;-75
2022/07/10 11:39:09;;;;;;;5.88;1.25;;;19.40;78.10;;;;;;6244433;23;20053;-75
2022/07/10 11:41:43;;;;;;;4.68;1.33;;;19.40;78.20;;;;;;6217507;23;20095;-75
2022/07/10 11:44:15;;;;;;;4.45;1.23;;;19.30;78.30;;;;;;6243589;23;20004;-75
2022/07/10 11:46:44;;;;;;;3.35;1.15;;;19.40;78.40;;;;;;6243920;23;20011;-75
2022/07/10 11:49:10;;;;;;;4.30;1.15;;;19.40;78.50;;;;;;6242799;23;20012;-75
2022/07/10 11:51:39;;;;;;;4.43;1.13;;;19.40;78.60;;;;;;6244049;23;20000;-75
2022/07/10 11:54:13;;;;;;;3.20;0.90;;;19.40;78.70;;;;;;6243546;23;20087;-74
2022/07/10 11:56:51;;;;;;;5.68;1.30;;;19.40;78.70;;;;;;6217165;23;20000;-75
2022/07/10 11:59:19;;;;;;;5.07;1.30;;;19.40;78.80;;;;;;6217218;23;20057;-74
2022/07/10 12:01:50;;;;;;;5.57;1.23;;;19.30;78.90;;;;;;6217047;23;20000;-75
2022/07/10 12:04:19;;;;;;;3.85;1.27;;;19.30;79.00;;;;;;6243726;23;20004;-75
2022/07/10 12:06:46;;;;;;;4.65;1.20;;;19.30;79.20;;;;;;6243970;23;20010;-75
2022/07/10 12:09:15;;;;;;;5.15;0.90;;;19.30;79.20;;;;;;6217167;23;20015;-74
2022/07/10 12:11:42;;;;;;;3.95;1.20;;;19.30;79.30;;;;;;6243917;23;20020;-75
2022/07/10 12:14:18;;;;;;;4.40;1.00;;;19.30;79.40;;;;;;6243441;23;20008;-75
2022/07/10 12:16:46;;;;;;;2.25;0.95;;;19.30;80.00;;;;;;6216927;23;20087;-74
2022/07/10 12:19:15;;;;;;;4.07;0.98;;;19.30;79.50;;;;;;6243832;23;20030;-75
2022/07/10 12:21:42;;;;;;;4.07;1.10;;;19.30;79.50;;;;;;6243798;23;20420;-75
2022/07/10 12:24:08;;;;;;;3.65;1.10;;;19.40;79.60;;;;;;6243298;23;20004;-75
2022/07/10 12:26:38;;;;;;;3.10;0.95;;;19.40;79.50;;;;;;6242228;23;20319;-75
2022/07/10 12:29:05;;;;;;;4.47;1.20;;;19.50;79.40;;;;;;6243619;23;20463;-75
2022/07/10 12:31:33;;;;;;;3.20;1.00;;;19.40;79.20;;;;;;6243933;23;20302;-75
2022/07/10 12:34:04;;;;;;;3.72;1.10;;;19.50;79.40;;;;;;6216331;23;20000;-75
2022/07/10 12:36:49;;;;;;;2.47;1.00;;;19.40;79.30;;;;;;6243925;23;20071;-74
2022/07/10 12:39:17;;;;;;;4.07;1.00;;;19.50;79.50;;;;;;6243599;23;20036;-75
2022/07/10 12:42:04;;;;;;;3.88;1.13;;;19.40;79.50;;;;;;6216776;23;19996;-75
2022/07/10 12:44:41;;;;;;;2.70;1.10;;;19.50;79.70;;;;;;6243284;23;20000;-75
2022/07/10 12:47:17;;;;;;;5.20;1.73;;;19.50;79.70;;;;;;6217047;23;20057;-75
2022/07/10 12:49:58;;;;;;;3.70;1.00;;;19.50;79.80;;;;;;6216909;23;20016;-75
2022/07/10 12:52:25;;;;;;;3.80;1.13;;;19.50;79.70;;;;;;6243622;23;20007;-75
2022/07/10 12:55:14;;;;;;;4.72;1.20;;;19.50;79.80;;;;;;6243179;23;20004;-75
2022/07/10 12:57:59;;;;;;;3.80;1.05;;;19.40;79.80;;;;;;6216627;23;20095;-75
2022/07/10 13:00:32;;;;;;;2.97;0.80;;;19.50;79.90;;;;;;6243677;23;20073;-75
2022/07/10 13:03:07;;;;;;;3.63;1.10;;;19.40;79.80;;;;;;6207317;23;20266;-75
2022/07/10 13:05:38;;;;;;;3.72;1.15;;;19.40;79.90;;;;;;6240984;23;20427;-74
2022/07/10 13:08:25;;;;;;;2.75;1.00;;;19.50;80.00;;;;;;6215396;23;20503;-75
2022/07/10 13:10:58;;;;;;;4.25;1.13;;;19.50;80.10;;;;;;6242618;23;19997;-75
2022/07/10 13:13:24;;;;;;;3.85;1.13;;;19.50;80.30;;;;;;6242155;23;20580;-75
2022/07/10 13:15:52;;;;;;;4.32;1.00;;;19.50;80.30;;;;;;6241998;23;20054;-75
2022/07/10 13:18:24;;;;;;;2.40;1.02;;;19.50;80.30;;;;;;6242844;23;20000;-75
2022/07/10 13:20:50;;;;;;;;;;;19.50;80.20;;;;;;6216265;23;20099;-74
2022/07/10 13:23:19;;;;;;;3.25;1.23;;;19.60;80.10;;;;;;6242621;23;19900;-75
2022/07/10 13:25:44;;;;;;;3.35;1.00;;;19.50;80.10;;;;;;6215461;23;20011;-75
2022/07/10 13:28:11;;;;;;;4.70;1.00;;;19.50;80.10;;;;;;6242726;23;20001;-72
2022/07/10 13:30:37;;;;;;;3.50;0.90;;;19.50;80.20;;;;;;6242415;23;20012;-72
2022/07/10 13:33:03;;;;;;;2.70;1.00;;;19.50;80.30;;;;;;6242452;23;20007;-74
2022/07/10 13:35:30;;;;;;;2.38;0.88;;;19.50;80.40;;;;;;6216254;23;20087;-75
2022/07/10 13:37:59;;;;;;;2.13;0.90;;;19.50;80.40;;;;;;6217884;23;20000;-75
2022/07/10 13:40:34;;;;;;;3.63;1.10;;;19.50;80.50;;;;;;6243703;23;20421;-75
2022/07/10 13:43:01;;;;;;;2.80;1.00;;;19.50;80.60;;;;;;6243477;23;20457;-75
2022/07/10 13:45:32;;;;;;;2.65;0.90;;;19.50;80.60;;;;;;6245836;23;20130;-75
2022/07/10 13:47:58;;;;;;;3.97;0.90;;;19.50;80.80;;;;;;6218052;23;20511;-75
2022/07/10 13:50:25;;;;;;;4.70;1.10;;;19.50;80.70;;;;;;6245318;23;20067;-75
2022/07/10 13:52:51;;;;;;;6.20;1.00;;;19.40;80.90;;;;;;6244835;23;20001;-76
2022/07/10 13:55:17;;;;;;;7.63;1.13;;;19.40;81.00;;;;;;6244650;23;20010;-75
2022/07/10 13:57:43;;;;;;;5.50;1.10;;;19.40;81.00;;;;;;6218513;23;20004;-75
2022/07/10 14:00:09;;;;;;;4.35;1.20;;;19.40;80.80;;;;;;6245296;23;20340;-75
2022/07/10 14:02:35;;;;;;;4.85;1.20;;;19.40;80.90;;;;;;6244402;23;20014;-75
2022/07/10 14:05:01;;;;;;;5.75;1.00;;;19.40;81.00;;;;;;6217658;23;20015;-75
2022/07/10 14:07:27;;;;;;;4.95;1.23;;;19.40;81.10;;;;;;6243472;23;20533;-75
2022/07/10 14:09:52;;;;;;;4.65;1.00;;;19.40;81.00;;;;;;6245011;23;20004;-75
2022/07/10 14:12:18;;;;;;;2.72;0.90;;;19.50;81.00;;;;;;6217884;23;20014;-75
2022/07/10 14:14:43;;;;;;;7.78;1.23;;;19.50;80.90;;;;;;6244073;23;20019;-75
2022/07/10 14:17:09;;;;;;;5.88;1.17;;;19.50;80.80;;;;;;6218518;23;20000;-75
2022/07/10 14:19:35;;;;;;;5.63;0.98;;;19.50;80.80;;;;;;6244927;23;20390;-75
2022/07/10 14:22:01;;;;;;;6.93;1.30;;;19.50;80.70;;;;;;6243411;23;20008;-75
2022/07/10 14:24:26;;;;;;;4.13;0.93;;;19.50;81.40;;;;;;6244752;23;20322;-75
2022/07/10 14:26:53;;;;;;;3.83;1.00;;;19.50;81.00;;;;;;6244450;23;20008;-75
2022/07/10 14:29:19;;;;;;;2.70;1.00;;;19.50;81.10;;;;;;6218001;23;20004;-75
2022/07/10 14:31:47;;;;;;;5.90;1.23;;;19.40;81.70;;;;;;6244701;23;20001;-75
2022/07/10 14:34:13;;;;;;;4.43;1.23;;;19.40;81.30;;;;;;6242677;23;20004;-75
2022/07/10 14:36:38;;;;;;;4.32;1.10;;;19.40;81.30;;;;;;6244842;23;20023;-75
2022/07/10 14:39:04;;;;;;;5.85;1.00;;;19.40;81.40;;;;;;6244780;23;20004;-75
2022/07/10 14:41:30;;;;;;;5.15;1.23;;;19.40;81.40;;;;;;6244227;23;20008;-75
2022/07/10 14:43:55;;;;;;;3.38;1.00;;;19.40;81.40;;;;;;6244081;23;20018;-75
2022/07/10 14:46:21;;;;;;;4.50;1.20;;;19.40;81.40;;;;;;6242791;23;20061;-75
2022/07/10 14:48:46;;;;;;;3.95;1.10;;;19.40;81.50;;;;;;6244749;23;20031;-75
2022/07/10 14:51:12;;;;;;;4.53;0.88;;;19.40;81.50;;;;;;6244261;23;20000;-75
2022/07/10 14:53:41;;;;;;;3.30;0.82;;;19.40;81.50;;;;;;6217569;23;20009;-73
2022/07/10 14:56:07;;;;;;;1.98;0.85;;;19.40;81.50;;;;;;6244262;23;20003;-74
2022/07/10 14:58:32;;;;;;;2.10;0.90;;;19.40;81.60;;;;;;6217776;23;20004;-75
2022/07/10 15:00:58;;;;;;;4.65;0.90;;;19.40;81.80;;;;;;6244524;23;20000;-75
2022/07/10 15:03:24;;;;;;;5.15;1.17;;;19.40;81.80;;;;;;6242312;23;20057;-75
2022/07/10 15:05:52;;;;;;;3.55;0.90;;;19.50;81.70;;;;;;6243836;23;20008;-75
2022/07/10 15:08:19;;;;;;;2.80;0.77;;;19.50;81.60;;;;;;6244023;23;20011;-75
2022/07/10 15:10:46;;;;;;;2.70;0.80;;;19.50;81.50;;;;;;6244295;23;20003;-75
2022/07/10 15:13:11;;;;;;;2.95;0.85;;;19.50;81.40;;;;;;6242460;23;20491;-73
2022/07/10 15:15:37;;;;;;;5.65;1.00;;;19.50;81.40;;;;;;6216791;23;20012;-75
2022/07/10 15:18:02;;;;;;;4.55;1.10;;;19.50;81.50;;;;;;6243864;23;20004;-75
2022/07/10 15:20:28;;;;;;;2.58;1.00;;;19.50;81.60;;;;;;6244241;23;20000;-75
2022/07/10 15:22:54;;;;;;;1.98;0.70;;;19.50;81.60;;;;;;6244103;23;20000;-75
2022/07/10 15:25:19;;;;;;;4.65;0.88;;;19.40;81.70;;;;;;6243571;23;20000;-75
2022/07/10 15:27:45;;;;;;;3.65;1.10;;;19.40;81.80;;;;;;6217443;23;20004;-72
2022/07/10 15:30:12;;;;;;;3.55;0.98;;;19.40;81.90;;;;;;6244089;23;20004;-72
2022/07/10 15:32:38;;;;;;;3.17;0.90;;;19.40;81.90;;;;;;6244560;23;20004;-77
2022/07/10 15:35:04;;;;;;;2.95;0.70;;;19.40;81.90;;;;;;6243559;23;20349;-75
2022/07/10 15:37:30;;;;;;;2.10;0.75;;;19.40;82.00;;;;;;6243255;23;20027;-73
2022/07/10 15:39:55;;;;;;;2.08;0.82;;;19.40;82.00;;;;;;6242047;23;20429;-75
2022/07/10 15:42:21;;;;;;;3.38;0.82;;;19.40;82.10;;;;;;6240405;23;20008;-74
2022/07/10 15:44:46;;;;;;;1.77;0.80;;;19.40;82.10;;;;;;6241624;23;20012;-75
2022/07/10 15:47:12;;;;;;;1.98;0.80;;;19.40;82.10;;;;;;6244172;23;20004;-76
2022/07/10 15:49:37;;;;;;;1.75;0.70;;;19.40;82.20;;;;;;6244213;23;20444;-75
2022/07/10 15:52:03;;;;;;;2.78;0.80;;;19.30;82.20;;;;;;6244184;23;20000;-75
2022/07/10 15:54:29;;;;;;;2.55;0.70;;;19.40;82.30;;;;;;6243684;23;20679;-75
2022/07/10 15:56:55;;;;;;;3.05;0.73;;;19.40;82.40;;;;;;6244184;23;20000;-76
2022/07/10 15:59:24;;;;;;;3.20;1.00;;;19.40;82.30;;;;;;6243632;23;20079;-75
2022/07/10 16:01:55;;;;;;;2.00;0.90;;;19.40;82.20;;;;;;6217104;23;20004;-75
2022/07/10 16:04:22;;;;;;;2.40;0.85;;;19.40;82.10;;;;;;6216969;23;20052;-76
2022/07/10 16:06:49;;;;;;;2.78;1.00;;;19.50;82.60;;;;;;6244272;23;20053;-75
2022/07/10 16:09:15;;;;;;;20.98;1.90;;;19.40;82.10;;;;;;6243838;23;20050;-75
2022/07/10 16:11:40;;;;;;;17.30;1.30;;;19.40;81.80;;;;;;6247510;23;20384;-79
2022/07/10 16:14:07;;;;;;;15.73;1.13;;;19.30;82.20;;;;;;6245611;23;20390;-75
2022/07/10 16:16:32;;;;;;;10.02;1.13;;;19.30;82.50;;;;;;6243855;23;20333;-75
2022/07/10 16:18:58;;;;;;;13.50;1.50;;;19.30;82.30;;;;;;6242246;23;20000;-76
2022/07/10 16:21:23;;;;;;;10.55;1.35;;;19.30;82.30;;;;;;6243902;23;19996;-75
2022/07/10 16:23:49;;;;;;;16.52;1.65;;;19.30;82.10;;;;;;6216696;23;20091;-75
2022/07/10 16:26:14;;;;;;;17.17;1.35;;;19.30;82.20;;;;;;6216792;23;20004;-76
2022/07/10 16:28:40;;;;;;;18.27;1.45;;;19.30;82.20;;;;;;6217448;23;20376;-76
2022/07/10 16:31:06;;;;;;;9.60;1.50;;;19.30;82.20;;;;;;6243693;23;20000;-75
2022/07/10 16:33:33;;;;;;;10.85;1.20;;;19.30;82.30;;;;;;6216779;23;20065;-75
2022/07/10 16:35:59;;;;;;;13.30;1.35;;;19.30;82.30;;;;;;6243278;23;20421;-74
2022/07/10 16:38:24;;;;;;;13.93;1.67;;;19.30;82.30;;;;;;6216684;23;20034;-75
2022/07/10 16:40:50;;;;;;;5.93;0.98;;;19.30;82.40;;;;;;6242538;23;20071;-75
2022/07/10 16:43:16;;;;;;;6.53;1.20;;;19.30;82.40;;;;;;6240791;23;20054;-74
2022/07/10 16:45:43;;;;;;;8.02;1.15;;;19.30;82.50;;;;;;6242411;23;20386;-74
2022/07/10 16:48:09;;;;;;;9.52;1.23;;;19.30;82.50;;;;;;6243197;23;19999;-74
2022/07/10 16:50:35;;;;;;;5.63;1.27;;;19.40;82.40;;;;;;6243685;23;20004;-75
2022/07/10 16:53:02;;;;;;;9.98;1.10;;;19.40;82.30;;;;;;6216486;23;20349;-75
2022/07/10 16:55:28;;;;;;;7.03;0.90;;;19.40;82.30;;;;;;6243145;23;20137;-75
2022/07/10 16:57:54;;;;;;;12.65;1.45;;;19.40;82.20;;;;;;6243732;23;19999;-76
2022/07/10 17:00:19;;;;;;;4.78;0.88;;;19.40;82.30;;;;;;6243462;23;19996;-75
2022/07/10 17:02:45;;;;;;;6.40;1.10;;;19.30;82.30;;;;;;6242305;23;20341;-75
2022/07/10 17:05:10;;;;;;;6.40;1.10;;;19.30;82.40;;;;;;6242874;23;20050;-74
2022/07/10 17:07:37;;;;;;;5.25;1.00;;;19.30;82.50;;;;;;6243815;23;20001;-76
2022/07/10 17:10:04;;;;;;;5.45;0.90;;;19.30;82.60;;;;;;6243635;23;20161;-75
2022/07/10 17:12:29;;;;;;;4.60;0.88;;;19.30;82.80;;;;;;6218081;23;20011;-75
2022/07/10 17:14:55;;;;;;;8.63;1.10;;;19.30;82.90;;;;;;6244739;23;20008;-75
2022/07/10 17:17:20;;;;;;;4.57;0.85;;;19.30;82.90;;;;;;6244497;23;20000;-74
2022/07/10 17:19:46;;;;;;;7.80;0.90;;;19.30;83.00;;;;;;6217582;23;20011;-75
2022/07/10 17:22:13;;;;;;;8.27;1.17;;;19.30;83.10;;;;;;6244854;23;20027;-77
2022/07/10 17:24:39;;;;;;;7.85;1.30;;;19.20;83.10;;;;;;6217481;23;20010;-74
2022/07/10 17:27:05;;;;;;;6.10;0.90;;;19.30;83.20;;;;;;6244777;23;20007;-75
2022/07/10 17:29:31;;;;;;;5.72;0.93;;;19.20;83.20;;;;;;6244444;23;20012;-74
2022/07/10 17:31:57;;;;;;;4.88;0.77;;;19.20;83.20;;;;;;6244950;23;20020;-74
2022/07/10 17:34:22;;;;;;;5.32;0.82;;;19.20;83.20;;;;;;6242592;23;20437;-75
2022/07/10 17:36:48;;;;;;;5.63;1.05;;;19.20;83.30;;;;;;6218323;23;20453;-74
2022/07/10 17:39:14;;;;;;;3.60;0.90;;;19.30;83.30;;;;;;6219125;23;20015;-74
2022/07/10 17:41:40;;;;;;;6.38;0.85;;;19.30;83.30;;;;;;6244402;23;20335;-75
2022/07/10 17:44:07;;;;;;;4.85;0.80;;;19.30;83.20;;;;;;6244427;23;20496;-75
2022/07/10 17:46:34;;;;;;;4.28;0.90;;;19.30;83.10;;;;;;6219231;23;20130;-74
2022/07/10 17:49:00;;;;;;;6.43;0.77;;;21.00;84.10;;;;;;6246323;23;20072;-74
2022/07/10 17:51:34;;;;;;;5.57;0.90;;;19.50;83.20;;;;;;6244339;23;20003;-75
2022/07/10 17:53:59;;;;;;;3.80;1.05;;;19.30;83.20;;;;;;6219121;23;20095;-75
2022/07/10 17:56:27;;;;;;;4.40;0.90;;;19.30;83.30;;;;;;6246506;23;19996;-75
2022/07/10 17:58:54;;;;;;;4.35;0.70;;;19.40;83.40;;;;;;6245217;23;20000;-74
2022/07/10 18:01:21;;;;;;;2.40;0.70;;;19.30;83.50;;;;;;6244319;23;20031;-75
2022/07/10 18:03:50;;;;;;;4.82;0.60;;;19.20;83.60;;;;;;6244503;23;20000;-75
2022/07/10 18:06:15;;;;;;;3.47;0.80;;;19.20;83.60;;;;;;6246028;23;20015;-75
2022/07/10 18:08:44;;;;;;;4.88;1.00;;;19.30;83.80;;;;;;6246407;23;20004;-75
2022/07/10 18:11:10;;;;;;;5.05;0.73;;;19.20;83.80;;;;;;6243988;23;20012;-72
2022/07/10 18:13:36;;;;;;;2.35;0.60;;;19.20;83.80;;;;;;6245328;23;20044;-75
2022/07/10 18:16:10;;;;;;;3.22;0.70;;;19.20;83.90;;;;;;6243023;23;20000;-75
2022/07/10 18:18:38;;;;;;;3.65;0.98;;;19.90;84.30;;;;;;6244804;23;20337;-75